Accueil
METAR-TAF:

METAR-TAF

Aéroports :

Aéroport Federico-Fellini

Rimini, Italie

latitude: 44-02N, longitude: 012-37E, altitude: 12 m

Observation

Le bulletin a été fait il y a 21 minutes, à 06:50 UTC
Vent 12 kt de nord/nord-est
Température 10°C
Humidité 57%
Pression 1028 hPa
Visibilité 10 km ou plus
Nuages épars à une hauteur de 3500 ft

METAR: LIPR 200650Z 02012KT 9999 SCT035 10/02 Q1028

Heure: 08:11 (07:11 UTC)

Prévision

Le bulletin a été fait il y a 2 heures et 11 minutes, à 05:00 UTC
Prévision valable du 20 à 06 UTC au 20 à 15 UTC
Vent 11 kt de nord
Visibilité 10 km ou plus
Quelques nuages à une hauteur de 3000 ft

TAF: LIPR 200500Z 2006/2015 01011KT 9999 FEW030

Observations et prévisions météorologiques de plus de 4000 aéroports (messages METAR et TAF).

Les stations disponibles sont représentées par des disques jaunes et rouges sur la carte.

Passer la souris dessus pour voir le nom de la station.

Cliquer dessus pour voir les observations et prévisions météorologiques.

Pour changer de carte: cliquez sur les boutons verts avec une croix noire pour zoomer, sur le bouton vert avec un tiret pour effectuer un zoom arrière, ou sur les flèches vertes pour les cartes adjacentes.


METAR-TAF: